Time;durP1;ratioP1;P1;durP2;ratioP2;P2;SDS_P1;SDS_P2;PMS_P1;PMS_P2;Temp;Humidity;BMP_temperature;BMP_pressure;BME280_temperature;BME280_humidity;BME280_pressure;Samples;Min_cycle;Max_cycle;Signal;HPM_P1;HPM_P2
2021/01/21 00:01:19;;;;;;;5.93;3.63;;;8.80;85.50;;;;;;5131545;27;20107;-83
2021/01/21 00:03:45;;;;;;;5.72;3.83;;;8.90;85.60;;;;;;5130858;28;20043;-82
2021/01/21 00:06:11;;;;;;;6.43;3.80;;;8.90;85.60;;;;;;5131423;28;20043;-83
2021/01/21 00:08:37;;;;;;;6.10;3.75;;;8.90;85.60;;;;;;5132102;27;20398;-83
2021/01/21 00:11:03;;;;;;;5.50;3.90;;;8.90;85.60;;;;;;5131158;28;20062;-83
2021/01/21 00:13:29;;;;;;;4.80;3.78;;;8.90;85.60;;;;;;5130753;28;20039;-83
2021/01/21 00:15:55;;;;;;;7.38;3.80;;;8.90;85.60;;;;;;5131363;28;20537;-81
2021/01/21 00:18:21;;;;;;;5.18;3.53;;;8.90;85.60;;;;;;5131493;28;20039;-82
2021/01/21 00:20:47;;;;;;;6.15;3.30;;;8.80;85.70;;;;;;5131900;28;20046;-83
2021/01/21 00:23:12;;;;;;;5.80;3.78;;;8.80;85.70;;;;;;5131092;28;20043;-83
2021/01/21 00:25:38;;;;;;;4.88;3.55;;;8.80;85.80;;;;;;5131862;28;20035;-83
2021/01/21 00:28:05;;;;;;;6.95;3.35;;;8.80;86.00;;;;;;5129945;28;20047;-83
2021/01/21 00:30:31;;;;;;;6.05;3.63;;;8.80;86.10;;;;;;5131749;28;20062;-83
2021/01/21 00:32:57;;;;;;;6.63;3.78;;;8.80;86.10;;;;;;5130700;27;20039;-80
2021/01/21 00:35:22;;;;;;;8.40;4.13;;;8.70;86.10;;;;;;5135083;27;20039;-83
2021/01/21 00:37:48;;;;;;;5.70;3.92;;;8.80;86.10;;;;;;5135170;27;20068;-83
2021/01/21 00:40:14;;;;;;;5.13;3.33;;;8.80;86.10;;;;;;5134572;27;20035;-84
2021/01/21 00:42:40;;;;;;;6.43;3.45;;;8.70;86.00;;;;;;5135072;27;20039;-82
2021/01/21 00:45:07;;;;;;;5.07;3.30;;;8.70;86.10;;;;;;5134091;27;20047;-83
2021/01/21 00:47:33;;;;;;;4.25;3.08;;;8.70;86.10;;;;;;5135368;27;20126;-83
2021/01/21 00:49:59;;;;;;;6.53;3.28;;;8.70;86.10;;;;;;5132939;27;20108;-81
2021/01/21 00:52:26;;;;;;;4.68;3.22;;;8.70;86.20;;;;;;5135236;27;20057;-83
2021/01/21 00:54:51;;;;;;;5.75;3.08;;;8.70;86.20;;;;;;5133818;27;20047;-84
2021/01/21 00:57:17;;;;;;;5.05;3.33;;;8.70;86.20;;;;;;5134050;27;20039;-83
2021/01/21 00:59:43;;;;;;;4.78;3.22;;;8.70;86.20;;;;;;5134843;27;20047;-83
2021/01/21 01:02:09;;;;;;;4.00;3.17;;;8.70;86.10;;;;;;5133845;27;20034;-83
2021/01/21 01:04:35;;;;;;;4.70;3.22;;;8.80;86.10;;;;;;5134914;27;20444;-82
2021/01/21 01:07:01;;;;;;;4.43;2.65;;;8.80;86.00;;;;;;5133724;27;20055;-82
2021/01/21 01:09:26;;;;;;;4.55;2.78;;;8.80;85.90;;;;;;5132948;27;20050;-82
2021/01/21 01:11:53;;;;;;;5.55;2.97;;;8.90;85.90;;;;;;5134812;27;20492;-83
2021/01/21 01:14:19;;;;;;;4.85;2.85;;;8.90;85.90;;;;;;5132721;27;20035;-83
2021/01/21 01:16:44;;;;;;;3.95;2.80;;;9.00;85.70;;;;;;5134702;27;20095;-83
2021/01/21 01:19:10;;;;;;;3.20;2.70;;;9.00;85.40;;;;;;5132224;27;20047;-82
2021/01/21 01:21:36;;;;;;;4.07;2.53;;;9.10;85.30;;;;;;5133182;27;20443;-83
2021/01/21 01:24:02;;;;;;;3.85;2.60;;;9.20;84.90;;;;;;5133845;27;20054;-81
2021/01/21 01:26:27;;;;;;;4.75;2.50;;;9.20;84.70;;;;;;5134402;27;20408;-83
2021/01/21 01:28:53;;;;;;;3.90;2.28;;;9.20;84.70;;;;;;5134472;27;20482;-83
2021/01/21 01:31:19;;;;;;;3.97;2.30;;;9.20;85.20;;;;;;5133511;27;20039;-83
2021/01/21 01:33:45;;;;;;;5.75;3.00;;;9.20;84.20;;;;;;5134364;27;20047;-83
2021/01/21 01:36:11;;;;;;;4.57;2.50;;;9.30;84.20;;;;;;5133352;27;20375;-83
2021/01/21 01:38:36;;;;;;;3.58;2.30;;;9.20;84.00;;;;;;5134326;27;20043;-83
2021/01/21 01:41:02;;;;;;;4.78;2.47;;;9.20;83.90;;;;;;5133141;27;20042;-81
2021/01/21 01:43:28;;;;;;;2.95;2.25;;;9.20;83.90;;;;;;5133981;27;20047;-83
2021/01/21 01:45:54;;;;;;;4.50;2.22;;;9.30;83.70;;;;;;5133913;27;20480;-83
2021/01/21 01:48:20;;;;;;;7.25;2.55;;;9.30;83.40;;;;;;5133290;27;20106;-83
2021/01/21 01:50:46;;;;;;;3.65;2.40;;;9.30;83.20;;;;;;5132773;27;20043;-83
2021/01/21 01:53:13;;;;;;;3.08;2.08;;;9.40;82.70;;;;;;5133203;27;20115;-83
2021/01/21 01:55:40;;;;;;;3.08;2.40;;;9.40;82.50;;;;;;5132548;27;20042;-83
2021/01/21 01:58:09;;;;;;;5.35;2.38;;;9.50;82.60;;;;;;5132024;27;20478;-82
2021/01/21 02:00:36;;;;;;;4.55;1.88;;;9.50;82.30;;;;;;5133768;27;20071;-83
2021/01/21 02:03:03;;;;;;;3.30;2.15;;;9.50;82.60;;;;;;5133404;27;20100;-81
2021/01/21 02:05:28;;;;;;;3.92;2.20;;;9.50;82.40;;;;;;5133550;27;20126;-83
2021/01/21 02:07:54;;;;;;;3.75;2.17;;;9.50;82.20;;;;;;5132259;27;20129;-83
2021/01/21 02:10:21;;;;;;;4.43;2.40;;;9.50;82.30;;;;;;5130811;27;20055;-84
2021/01/21 02:13:12;;;;;;;4.40;2.25;;;9.50;83.40;;;;;;5133609;27;20039;-84
2021/01/21 02:15:56;;;;;;;5.15;2.10;;;9.50;84.70;;;;;;5133712;27;20045;-83
2021/01/21 02:18:30;;;;;;;4.05;2.40;;;9.40;85.60;;;;;;5132203;27;20054;-83
2021/01/21 02:21:04;;;;;;;4.13;2.22;;;9.30;86.40;;;;;;5133684;27;20061;-83
2021/01/21 02:23:54;;;;;;;6.13;2.75;;;9.20;86.70;;;;;;5132602;27;20501;-82
2021/01/21 02:26:47;;;;;;;4.82;2.50;;;9.20;87.00;;;;;;5131373;27;20128;-83
2021/01/21 02:29:23;;;;;;;4.25;2.42;;;9.10;86.90;;;;;;5132239;27;20035;-83
2021/01/21 02:31:59;;;;;;;4.53;2.35;;;9.10;86.60;;;;;;5133189;27;20047;-83
2021/01/21 02:34:44;;;;;;;3.75;1.90;;;9.20;86.40;;;;;;5132338;27;20038;-83
2021/01/21 02:37:25;;;;;;;4.38;2.22;;;9.20;85.70;;;;;;5132022;27;20163;-83
2021/01/21 02:39:57;;;;;;;4.70;2.28;;;9.20;85.70;;;;;;5132896;27;20031;-83
2021/01/21 02:42:23;;;;;;;4.22;2.08;;;9.20;85.60;;;;;;5132226;27;20444;-83
2021/01/21 02:44:49;;;;;;;4.03;1.92;;;9.20;85.50;;;;;;5133102;27;20043;-83
2021/01/21 02:47:17;;;;;;;4.45;2.05;;;9.30;85.30;;;;;;5132096;27;20121;-83
2021/01/21 02:49:43;;;;;;;3.58;2.13;;;9.30;84.90;;;;;;5132822;27;20046;-83
2021/01/21 02:52:22;;;;;;;5.72;2.03;;;9.40;84.40;;;;;;5131887;27;20043;-84
2021/01/21 02:55:18;;;;;;;3.22;1.70;;;9.40;83.90;;;;;;5132661;27;20045;-84
2021/01/21 02:58:04;;;;;;;4.90;2.35;;;9.50;83.30;;;;;;5132077;27;20041;-83
2021/01/21 03:00:32;;;;;;;2.83;1.80;;;9.60;83.10;;;;;;5130138;27;20047;-83
2021/01/21 03:03:00;;;;;;;3.88;2.05;;;9.60;83.10;;;;;;5132534;27;20039;-83
2021/01/21 03:05:28;;;;;;;3.85;2.25;;;9.60;83.60;;;;;;5130298;27;20661;-83
2021/01/21 03:07:54;;;;;;;5.95;2.17;;;9.60;83.60;;;;;;5132460;27;20078;-84
2021/01/21 03:10:21;;;;;;;3.50;2.08;;;9.60;83.30;;;;;;5129926;27;20071;-82
2021/01/21 03:12:52;;;;;;;4.05;2.00;;;9.60;83.40;;;;;;5132739;27;20035;-86
2021/01/21 03:15:20;;;;;;;2.97;1.83;;;9.60;83.30;;;;;;5130438;27;20039;-85
2021/01/21 03:17:46;;;;;;;4.30;1.90;;;9.60;83.00;;;;;;5130864;27;20092;-84
2021/01/21 03:20:12;;;;;;;3.50;2.00;;;9.60;83.40;;;;;;5130288;28;20040;-84
2021/01/21 03:22:38;;;;;;;4.47;2.33;;;9.60;83.30;;;;;;5132097;27;20045;-86
2021/01/21 03:25:04;;;;;;;3.95;1.88;;;9.70;83.30;;;;;;5132568;28;20114;-86
2021/01/21 03:27:30;;;;;;;4.80;1.70;;;9.70;83.00;;;;;;5130184;28;20047;-85
2021/01/21 03:29:56;;;;;;;3.95;2.20;;;9.80;82.70;;;;;;5132458;28;20043;-86
2021/01/21 03:32:21;;;;;;;5.10;2.10;;;9.80;82.90;;;;;;5131394;28;20114;-85
2021/01/21 03:34:47;;;;;;;3.58;1.83;;;9.80;82.40;;;;;;5132427;28;20035;-86
2021/01/21 03:37:13;;;;;;;4.72;1.80;;;9.80;82.60;;;;;;5131537;28;20031;-84
2021/01/21 03:39:39;;;;;;;3.40;1.85;;;9.80;82.50;;;;;;5132463;27;20039;-85
2021/01/21 03:42:05;;;;;;;4.32;1.88;;;9.80;82.80;;;;;;5132070;28;20200;-85
2021/01/21 03:44:31;;;;;;;3.72;1.80;;;9.80;82.50;;;;;;5130379;28;20039;-87
2021/01/21 03:46:56;;;;;;;2.88;1.65;;;9.90;82.60;;;;;;5132252;28;20466;-86
2021/01/21 03:49:22;;;;;;;3.38;2.03;;;9.90;82.20;;;;;;5129950;28;20442;-86
2021/01/21 03:51:48;;;;;;;3.25;2.03;;;9.90;82.30;;;;;;5132066;28;20398;-86
2021/01/21 03:54:14;;;;;;;5.03;2.10;;;9.90;82.10;;;;;;5131465;28;20051;-85
2021/01/21 03:56:40;;;;;;;3.47;1.90;;;9.90;82.80;;;;;;5131805;28;20043;-86
2021/01/21 03:59:06;;;;;;;4.78;1.83;;;9.90;83.30;;;;;;5130623;28;20072;-85
2021/01/21 04:01:31;;;;;;;5.10;1.88;;;9.80;83.60;;;;;;5129922;28;20050;-86
2021/01/21 04:03:57;;;;;;;5.07;2.00;;;9.80;84.00;;;;;;5131076;28;20047;-85
2021/01/21 04:06:23;;;;;;;4.93;2.22;;;9.80;84.50;;;;;;5130065;28;20389;-85
2021/01/21 04:08:49;;;;;;;4.20;1.90;;;9.70;85.10;;;;;;5133322;27;20492;-84
2021/01/21 04:11:15;;;;;;;2.95;1.98;;;9.60;85.80;;;;;;5135065;27;20398;-85
2021/01/21 04:13:40;;;;;;;3.97;1.88;;;9.60;86.00;;;;;;5134867;27;20043;-85
2021/01/21 04:16:07;;;;;;;3.97;1.90;;;9.50;86.60;;;;;;5135491;27;20446;-85
2021/01/21 04:18:33;;;;;;;4.40;1.90;;;9.50;87.20;;;;;;5133560;27;20035;-85
2021/01/21 04:20:58;;;;;;;3.50;2.05;;;9.50;87.70;;;;;;5135723;27;20050;-84
2021/01/21 04:23:24;;;;;;;4.50;1.83;;;9.40;88.50;;;;;;5133755;27;20169;-84
2021/01/21 04:25:50;;;;;;;3.72;1.95;;;9.40;90.00;;;;;;5135754;27;20039;-84
2021/01/21 04:28:16;;;;;;;4.05;2.00;;;9.30;90.00;;;;;;5134909;27;20119;-84
2021/01/21 04:30:42;;;;;;;3.00;1.80;;;9.20;90.20;;;;;;5134567;27;20042;-85
2021/01/21 04:33:08;;;;;;;4.18;2.03;;;9.20;90.80;;;;;;5135274;27;20051;-85
2021/01/21 04:35:34;;;;;;;4.35;2.05;;;9.20;90.60;;;;;;5134784;27;20047;-84
2021/01/21 04:38:00;;;;;;;2.78;2.00;;;9.20;90.80;;;;;;5135334;27;20475;-85
2021/01/21 04:40:26;;;;;;;4.07;2.10;;;9.10;91.00;;;;;;5133439;27;20088;-84
2021/01/21 04:42:53;;;;;;;3.35;1.98;;;9.10;91.20;;;;;;5135159;27;20039;-84
2021/01/21 04:45:19;;;;;;;3.72;2.00;;;9.10;91.30;;;;;;5133488;27;20049;-84
2021/01/21 04:47:45;;;;;;;4.68;2.28;;;9.10;91.70;;;;;;5134181;27;20038;-86
2021/01/21 04:50:13;;;;;;;4.95;1.30;;;9.10;92.10;;;;;;5134682;27;20043;-85
2021/01/21 04:52:42;;;;;;;2.53;1.10;;;9.20;90.50;;;;;;5134250;27;20078;-84
2021/01/21 04:55:14;;;;;;;3.13;1.08;;;9.20;89.00;;;;;;5134059;27;20397;-84
2021/01/21 04:57:48;;;;;;;2.58;1.00;;;9.10;86.20;;;;;;5133520;27;20035;-84
2021/01/21 05:00:16;;;;;;;4.17;1.10;;;9.10;84.90;;;;;;5134908;27;20447;-82
2021/01/21 05:02:43;;;;;;;4.43;1.30;;;8.60;86.20;;;;;;5134437;27;20075;-84
2021/01/21 05:05:10;;;;;;;4.60;1.20;;;8.60;85.50;;;;;;5135170;27;20471;-84
2021/01/21 05:07:40;;;;;;;5.43;1.50;;;8.40;86.70;;;;;;5133899;27;20039;-84
2021/01/21 05:10:08;;;;;;;5.43;1.40;;;8.30;87.30;;;;;;5134680;27;20054;-84
2021/01/21 05:12:34;;;;;;;4.18;1.20;;;8.10;86.60;;;;;;5134137;27;20069;-85
2021/01/21 05:15:00;;;;;;;6.57;1.67;;;8.10;84.40;;;;;;5133802;27;20063;-85
2021/01/21 05:17:27;;;;;;;6.82;1.40;;;8.10;83.20;;;;;;5134005;27;20035;-84
2021/01/21 05:19:53;;;;;;;4.97;1.30;;;7.90;84.30;;;;;;5125517;27;20148;-85
2021/01/21 05:22:20;;;;;;;5.13;1.30;;;7.80;82.30;;;;;;5133637;27;20046;-82
2021/01/21 05:24:46;;;;;;;6.07;1.40;;;7.60;83.90;;;;;;5134776;27;20046;-84
2021/01/21 05:27:16;;;;;;;8.02;1.33;;;7.40;85.10;;;;;;5134411;27;20050;-84
2021/01/21 05:29:46;;;;;;;9.68;1.40;;;7.10;86.90;;;;;;5134195;27;20100;-80
2021/01/21 05:32:14;;;;;;;5.90;1.90;;;7.00;87.50;;;;;;5134432;27;20103;-82
2021/01/21 05:34:42;;;;;;;13.80;2.90;;;7.10;86.30;;;;;;5133593;27;20043;-82
2021/01/21 05:37:13;;;;;;;7.47;1.55;;;7.10;85.70;;;;;;5134364;27;20047;-83
2021/01/21 05:39:41;;;;;;;6.55;2.00;;;7.10;86.30;;;;;;5133768;27;20043;-83
2021/01/21 05:42:07;;;;;;;8.40;2.00;;;7.20;85.40;;;;;;5134198;27;20057;-82
2021/01/21 05:44:33;;;;;;;9.70;1.30;;;7.30;85.00;;;;;;5133228;27;20043;-81
2021/01/21 05:47:04;;;;;;;5.82;1.40;;;7.40;84.10;;;;;;5133073;27;20078;-82
2021/01/21 05:49:30;;;;;;;13.77;2.95;;;7.50;84.00;;;;;;5132825;27;20050;-83
2021/01/21 05:51:58;;;;;;;13.38;3.58;;;7.40;84.90;;;;;;5133887;27;20047;-83
2021/01/21 05:54:24;;;;;;;6.97;1.83;;;7.50;84.40;;;;;;5133311;27;20475;-82
2021/01/21 05:56:52;;;;;;;5.45;1.50;;;7.60;85.20;;;;;;5132441;27;20039;-82
2021/01/21 05:59:25;;;;;;;5.30;1.42;;;7.50;84.00;;;;;;5132469;27;20043;-81
2021/01/21 06:01:55;;;;;;;3.97;1.27;;;7.30;83.50;;;;;;5132811;27;20135;-82
2021/01/21 06:04:26;;;;;;;6.15;1.13;;;7.20;81.60;;;;;;5132158;27;20482;-81
2021/01/21 06:06:55;;;;;;;3.58;0.90;;;7.00;82.60;;;;;;5134214;27;20039;-83
2021/01/21 06:09:27;;;;;;;4.32;0.95;;;;;;;;;;5132872;27;20111;-80
2021/01/21 06:12:00;;;;;;;3.95;0.90;;;6.70;82.50;;;;;;5132205;27;20470;-83
2021/01/21 06:14:27;;;;;;;5.88;1.10;;;6.60;83.60;;;;;;5132748;27;20035;-84
2021/01/21 06:16:53;;;;;;;6.03;1.20;;;6.50;84.90;;;;;;5132606;27;20043;-82
2021/01/21 06:19:20;;;;;;;4.22;1.10;;;6.40;85.10;;;;;;5133228;27;20089;-83
2021/01/21 06:21:56;;;;;;;6.95;1.40;;;6.30;86.10;;;;;;5132745;27;20042;-81
2021/01/21 06:24:30;;;;;;;4.10;1.13;;;6.30;86.10;;;;;;5132876;27;20039;-82
2021/01/21 06:27:07;;;;;;;3.47;1.00;;;6.30;85.50;;;;;;5132032;27;20105;-82
2021/01/21 06:29:33;;;;;;;8.90;1.58;;;6.20;86.10;;;;;;5130348;27;20039;-82
2021/01/21 06:32:25;;;;;;;8.98;1.60;;;6.10;86.40;;;;;;5131697;27;20085;-82
2021/01/21 06:34:53;;;;;;;8.93;1.92;;;6.30;86.60;;;;;;5133438;27;20084;-82
2021/01/21 06:37:21;;;;;;;9.98;1.63;;;6.10;88.40;;;;;;5131660;27;20047;-82
2021/01/21 06:40:01;;;;;;;15.70;1.42;;;6.10;88.60;;;;;;5132384;27;20055;-81
2021/01/21 06:42:32;;;;;;;4.40;1.10;;;6.00;90.00;;;;;;5132196;27;20134;-81
2021/01/21 06:44:59;;;;;;;10.10;1.65;;;5.90;90.20;;;;;;5133301;27;20110;-82
2021/01/21 06:47:25;;;;;;;8.20;1.50;;;5.80;90.20;;;;;;5130209;27;20070;-80
2021/01/21 06:50:04;;;;;;;8.95;1.50;;;5.80;90.30;;;;;;5131351;27;20039;-80
2021/01/21 06:52:32;;;;;;;5.57;1.30;;;6.00;88.50;;;;;;5129620;27;20050;-79
2021/01/21 06:55:01;;;;;;;5.95;1.48;;;6.10;87.70;;;;;;5131550;27;20114;-80
2021/01/21 06:57:36;;;;;;;6.00;1.40;;;6.00;88.10;;;;;;5130471;27;20095;-80
2021/01/21 07:00:09;;;;;;;;;;;6.00;89.10;;;;;;5130844;27;20479;-79
2021/01/21 07:02:46;;;;;;;8.15;1.60;;;6.10;88.70;;;;;;5128102;27;19926;-82
2021/01/21 07:05:23;;;;;;;4.88;1.52;;;6.00;88.50;;;;;;5131233;27;20043;-82
2021/01/21 07:08:00;;;;;;;8.82;2.30;;;6.00;87.70;;;;;;5131943;27;20479;-82
2021/01/21 07:10:36;;;;;;;5.60;1.42;;;5.90;88.50;;;;;;5130375;27;20055;-81
2021/01/21 07:13:14;;;;;;;7.47;1.50;;;5.90;87.50;;;;;;5132605;27;20463;-81
2021/01/21 07:15:42;;;;;;;7.00;1.67;;;5.90;86.70;;;;;;5130854;27;20038;-83
2021/01/21 07:18:14;;;;;;;7.30;2.33;;;5.90;85.80;;;;;;5131177;27;20057;-82
2021/01/21 07:21:07;;;;;;;8.32;1.95;;;6.00;84.40;;;;;;5131628;27;20056;-81
2021/01/21 07:23:44;;;;;;;10.63;1.90;;;6.00;84.70;;;;;;5130331;28;20486;-82
2021/01/21 07:26:29;;;;;;;7.05;1.52;;;5.90;84.40;;;;;;5133105;27;20050;-82
2021/01/21 07:29:15;;;;;;;7.10;1.88;;;5.90;84.10;;;;;;5133274;27;20042;-82
2021/01/21 07:31:53;;;;;;;8.23;1.90;;;5.80;84.90;;;;;;5132418;27;20058;-82
2021/01/21 07:34:24;;;;;;;9.35;2.72;;;5.70;85.10;;;;;;5132975;28;20039;-82
2021/01/21 07:37:27;;;;;;;11.57;2.05;;;5.80;84.50;;;;;;5132759;28;20058;-82
2021/01/21 07:40:10;;;;;;;7.07;1.63;;;6.00;83.20;;;;;;5133008;28;20511;-82
2021/01/21 07:42:38;;;;;;;10.80;2.40;;;5.90;83.70;;;;;;5133312;27;20043;-82
2021/01/21 07:45:04;;;;;;;6.25;1.50;;;5.70;85.10;;;;;;5136286;27;20508;-82
2021/01/21 07:47:41;;;;;;;9.02;1.65;;;5.70;85.20;;;;;;5136666;27;20039;-82
2021/01/21 07:50:16;;;;;;;6.32;2.00;;;5.80;84.20;;;;;;5136566;27;20043;-82
2021/01/21 07:52:43;;;;;;;10.05;2.60;;;5.80;84.70;;;;;;5136519;27;20071;-82
2021/01/21 07:55:10;;;;;;;10.00;2.15;;;5.80;84.20;;;;;;5137018;27;20050;-82
2021/01/21 07:57:36;;;;;;;9.07;1.85;;;5.60;84.80;;;;;;5136337;27;20050;-82
2021/01/21 08:00:10;;;;;;;8.95;2.08;;;5.70;83.90;;;;;;5136857;27;20126;-82
2021/01/21 08:02:47;;;;;;;8.48;1.98;;;5.70;84.80;;;;;;5135771;27;20142;-82
2021/01/21 08:05:14;;;;;;;7.32;1.75;;;5.60;85.00;;;;;;5134971;27;20145;-82
2021/01/21 08:07:44;;;;;;;10.88;1.83;;;5.60;85.50;;;;;;5136141;27;20065;-83
2021/01/21 08:10:10;;;;;;;8.50;1.92;;;5.80;85.10;;;;;;5136703;27;20130;-83
2021/01/21 08:12:36;;;;;;;9.43;2.65;;;5.70;85.80;;;;;;5136157;27;20506;-82
2021/01/21 08:15:04;;;;;;;8.02;1.92;;;5.70;85.80;;;;;;5136541;27;20039;-83
2021/01/21 08:17:29;;;;;;;8.85;2.10;;;5.90;85.70;;;;;;5134675;27;20047;-82
2021/01/21 08:19:55;;;;;;;8.90;2.47;;;6.10;83.30;;;;;;5136418;27;20054;-82
2021/01/21 08:22:21;;;;;;;10.13;2.30;;;6.10;83.00;;;;;;5136517;27;20483;-82
2021/01/21 08:24:57;;;;;;;8.85;3.15;;;6.20;82.30;;;;;;5134162;27;20513;-82
2021/01/21 08:27:23;;;;;;;11.90;6.07;;;6.30;80.00;;;;;;5136275;27;20100;-82
2021/01/21 08:29:49;;;;;;;6.43;2.35;;;6.30;80.20;;;;;;5135674;27;20560;-82
2021/01/21 08:32:15;;;;;;;6.00;2.25;;;6.30;79.40;;;;;;5136277;27;20049;-82
2021/01/21 08:34:41;;;;;;;8.20;2.58;;;6.40;78.50;;;;;;5134399;27;20111;-82
2021/01/21 08:37:07;;;;;;;9.90;3.80;;;6.30;79.60;;;;;;5135884;27;20043;-82
2021/01/21 08:39:34;;;;;;;15.82;3.90;;;6.30;80.70;;;;;;5135258;27;20390;-83
2021/01/21 08:42:00;;;;;;;14.32;2.40;;;6.40;80.70;;;;;;5136087;27;20072;-82
2021/01/21 08:44:26;;;;;;;9.07;2.40;;;6.40;81.10;;;;;;5135574;27;20058;-82
2021/01/21 08:46:59;;;;;;;9.23;2.30;;;6.50;80.80;;;;;;5135378;27;20444;-82
2021/01/21 08:49:26;;;;;;;8.20;2.28;;;6.40;81.50;;;;;;5135882;27;20049;-83
2021/01/21 08:52:06;;;;;;;9.35;2.28;;;6.40;82.10;;;;;;5135172;27;20043;-82
2021/01/21 08:54:32;;;;;;;7.78;2.28;;;6.40;82.20;;;;;;5133910;27;20116;-82
2021/01/21 08:57:11;;;;;;;9.57;2.05;;;6.40;81.80;;;;;;5135462;27;20058;-82
2021/01/21 08:59:38;;;;;;;12.00;3.33;;;6.40;82.70;;;;;;5134898;27;20457;-82
2021/01/21 09:02:05;;;;;;;10.98;2.13;;;6.50;81.10;;;;;;5135139;27;20053;-83
2021/01/21 09:04:36;;;;;;;7.32;2.40;;;6.50;81.50;;;;;;5120677;27;20505;-82
2021/01/21 09:07:04;;;;;;;7.15;2.13;;;6.60;80.50;;;;;;5135798;27;20035;-82
2021/01/21 09:09:38;;;;;;;10.23;2.20;;;6.80;79.10;;;;;;5135543;27;20035;-82
2021/01/21 09:12:20;;;;;;;11.40;2.55;;;7.00;77.30;;;;;;5135369;27;20153;-83
2021/01/21 09:15:11;;;;;;;8.57;2.17;;;7.00;77.90;;;;;;5134630;27;20035;-83
2021/01/21 09:17:39;;;;;;;9.05;1.85;;;7.00;78.00;;;;;;5134785;27;20047;-82
2021/01/21 09:20:26;;;;;;;9.35;2.70;;;7.00;77.00;;;;;;5134122;27;20042;-82
2021/01/21 09:22:53;;;;;;;9.00;2.10;;;6.90;78.20;;;;;;5134422;27;20043;-82
2021/01/21 09:25:24;;;;;;;7.53;2.25;;;6.90;78.70;;;;;;5133620;27;20047;-83
2021/01/21 09:27:54;;;;;;;7.47;2.00;;;6.90;78.20;;;;;;5134626;27;20043;-82
2021/01/21 09:30:21;;;;;;;8.02;1.88;;;6.90;79.60;;;;;;5134771;27;20112;-83
2021/01/21 09:32:47;;;;;;;7.60;1.77;;;6.90;79.00;;;;;;5134214;27;20054;-82
2021/01/21 09:35:15;;;;;;;6.95;1.80;;;6.80;79.10;;;;;;5134990;27;20073;-83
2021/01/21 09:37:46;;;;;;;10.98;4.32;;;6.80;80.30;;;;;;5134191;27;20120;-82
2021/01/21 09:40:19;;;;;;;9.73;2.38;;;6.70;80.30;;;;;;5134715;27;20063;-82
2021/01/21 09:42:45;;;;;;;9.02;2.20;;;6.70;80.00;;;;;;5133805;27;20086;-82
2021/01/21 09:45:11;;;;;;;9.65;2.25;;;6.70;79.10;;;;;;5134435;27;20664;-82
2021/01/21 09:47:38;;;;;;;10.40;2.40;;;6.60;80.10;;;;;;5134237;27;20043;-82
2021/01/21 09:50:05;;;;;;;10.60;1.75;;;6.70;80.10;;;;;;5134544;27;20035;-82
2021/01/21 09:52:32;;;;;;;4.93;1.90;;;6.80;80.20;;;;;;5134855;27;20035;-82
2021/01/21 09:54:59;;;;;;;8.85;2.00;;;6.90;80.40;;;;;;5134058;27;20043;-82
2021/01/21 09:57:28;;;;;;;5.97;1.63;;;7.10;79.40;;;;;;5133202;27;20070;-82
2021/01/21 09:59:54;;;;;;;7.88;2.38;;;7.20;77.60;;;;;;5133639;27;20043;-82
2021/01/21 10:02:21;;;;;;;8.27;2.17;;;7.20;77.30;;;;;;5134566;27;20043;-82
2021/01/21 10:04:47;;;;;;;12.25;2.00;;;7.20;77.60;;;;;;5133912;27;20063;-82
2021/01/21 10:07:12;;;;;;;7.25;1.90;;;7.30;77.40;;;;;;5133999;27;20449;-83
2021/01/21 10:09:39;;;;;;;10.27;2.10;;;7.20;77.60;;;;;;5133840;27;20539;-82
2021/01/21 10:12:05;;;;;;;5.53;1.98;;;7.20;78.50;;;;;;5133619;27;20063;-83
2021/01/21 10:14:32;;;;;;;9.40;2.10;;;7.20;78.20;;;;;;5134063;27;20043;-82
2021/01/21 10:16:59;;;;;;;9.90;2.08;;;7.20;78.00;;;;;;5133563;27;20041;-82
2021/01/21 10:19:26;;;;;;;7.65;1.88;;;7.20;78.40;;;;;;5134242;27;20133;-83
2021/01/21 10:21:52;;;;;;;8.95;2.00;;;7.20;79.50;;;;;;5133358;27;20114;-82
2021/01/21 10:24:18;;;;;;;7.82;2.10;;;7.20;78.70;;;;;;5133859;27;20380;-82
2021/01/21 10:26:44;;;;;;;6.68;2.28;;;7.20;79.20;;;;;;5132200;27;20088;-83
2021/01/21 10:29:09;;;;;;;8.40;2.00;;;7.30;78.60;;;;;;5133937;27;20091;-82
2021/01/21 10:31:35;;;;;;;9.02;2.03;;;7.30;79.40;;;;;;5133851;27;20047;-83
2021/01/21 10:34:02;;;;;;;6.78;1.80;;;7.30;79.00;;;;;;5133397;27;20122;-83
2021/01/21 10:36:28;;;;;;;6.18;1.90;;;7.30;79.30;;;;;;5133958;27;20530;-83
2021/01/21 10:38:54;;;;;;;8.82;2.15;;;7.40;80.00;;;;;;5132767;27;20126;-83
2021/01/21 10:41:20;;;;;;;8.05;1.90;;;7.30;80.00;;;;;;5131944;27;20395;-83
2021/01/21 10:43:45;;;;;;;14.27;2.83;;;7.30;80.30;;;;;;5133113;27;20118;-82
2021/01/21 10:46:11;;;;;;;11.88;2.30;;;7.30;80.60;;;;;;5133239;27;20039;-82
2021/01/21 10:48:37;;;;;;;10.30;2.38;;;7.50;80.50;;;;;;5132445;27;20239;-83
2021/01/21 10:51:03;;;;;;;9.50;2.17;;;7.60;79.60;;;;;;5132866;27;20039;-83
2021/01/21 10:53:29;;;;;;;10.10;2.20;;;7.80;78.00;;;;;;5133385;27;20047;-82
2021/01/21 10:55:55;;;;;;;8.50;2.10;;;7.80;78.10;;;;;;5132785;27;20455;-83
2021/01/21 10:58:21;;;;;;;7.35;2.17;;;7.90;77.30;;;;;;5132350;27;20481;-83
2021/01/21 11:00:47;;;;;;;9.75;2.50;;;7.90;78.50;;;;;;5132715;27;20164;-82
2021/01/21 11:03:13;;;;;;;9.40;2.25;;;8.00;76.20;;;;;;5133512;27;20043;-83
2021/01/21 11:05:40;;;;;;;8.20;2.08;;;7.90;77.50;;;;;;5133191;27;20433;-82
2021/01/21 11:08:07;;;;;;;9.80;2.25;;;8.00;77.30;;;;;;5133609;27;20039;-83
2021/01/21 11:10:34;;;;;;;8.63;2.33;;;8.00;76.40;;;;;;5133007;27;20062;-82
2021/01/21 11:12:59;;;;;;;8.70;2.45;;;7.90;77.20;;;;;;5132231;27;20467;-83
2021/01/21 11:15:25;;;;;;;9.55;2.80;;;7.80;77.30;;;;;;5133321;27;20047;-83
2021/01/21 11:17:52;;;;;;;9.30;2.63;;;7.80;77.10;;;;;;5132017;27;20058;-83
2021/01/21 11:20:17;;;;;;;7.43;2.40;;;7.70;78.50;;;;;;5132917;27;20478;-82
2021/01/21 11:22:43;;;;;;;6.57;2.70;;;7.60;78.40;;;;;;5131486;27;20043;-82
2021/01/21 11:25:11;;;;;;;9.75;2.78;;;7.70;78.20;;;;;;5133188;27;20050;-82
2021/01/21 11:27:38;;;;;;;7.90;2.50;;;7.80;78.00;;;;;;5132751;27;20043;-82
2021/01/21 11:30:05;;;;;;;8.15;2.30;;;7.80;77.80;;;;;;5132723;27;20042;-83
2021/01/21 11:32:31;;;;;;;12.50;2.60;;;7.70;78.60;;;;;;5131919;28;20047;-82
2021/01/21 11:34:57;;;;;;;10.13;2.50;;;7.70;78.70;;;;;;5132356;28;20047;-82
2021/01/21 11:37:23;;;;;;;10.15;2.90;;;7.70;78.20;;;;;;5132991;28;20039;-83
2021/01/21 11:39:49;;;;;;;11.25;3.60;;;7.80;79.10;;;;;;5132486;27;20471;-82
2021/01/21 11:42:15;;;;;;;7.45;3.10;;;7.80;79.00;;;;;;5132383;28;20046;-83
2021/01/21 11:44:41;;;;;;;7.28;2.20;;;7.90;78.60;;;;;;5132892;28;20039;-83
2021/01/21 11:47:07;;;;;;;8.52;2.95;;;7.90;78.30;;;;;;5132310;28;20118;-83
2021/01/21 11:49:32;;;;;;;10.45;2.50;;;7.90;78.80;;;;;;5132695;28;20078;-83
2021/01/21 11:51:58;;;;;;;10.73;2.60;;;7.90;78.60;;;;;;5131655;28;20043;-83
2021/01/21 11:54:25;;;;;;;10.30;2.40;;;7.90;78.90;;;;;;5132872;27;20051;-83
2021/01/21 11:56:51;;;;;;;7.88;2.55;;;7.90;79.40;;;;;;5132227;27;20043;-83
2021/01/21 11:59:17;;;;;;;6.18;2.00;;;8.10;78.20;;;;;;5132903;27;20404;-82
2021/01/21 12:01:43;;;;;;;6.78;2.45;;;8.20;79.10;;;;;;5132619;27;20051;-83
2021/01/21 12:04:10;;;;;;;9.77;2.80;;;8.30;77.80;;;;;;5131921;27;20448;-83
2021/01/21 12:06:35;;;;;;;9.80;2.50;;;8.40;77.70;;;;;;5132759;27;20081;-83
2021/01/21 12:09:03;;;;;;;8.82;2.38;;;8.40;78.10;;;;;;5132086;28;20067;-83
2021/01/21 12:11:30;;;;;;;12.35;2.60;;;8.50;77.00;;;;;;5131966;27;20065;-83
2021/01/21 12:13:56;;;;;;;7.35;2.58;;;8.40;77.30;;;;;;5131959;27;20047;-83
2021/01/21 12:16:22;;;;;;;9.40;2.95;;;8.30;77.40;;;;;;5132303;28;20049;-82
2021/01/21 12:18:49;;;;;;;11.98;2.67;;;8.30;77.60;;;;;;5131957;28;20386;-83
2021/01/21 12:21:15;;;;;;;7.88;2.60;;;8.30;78.70;;;;;;5132736;28;20474;-83
2021/01/21 12:23:41;;;;;;;8.98;2.30;;;8.30;78.40;;;;;;5132567;28;20038;-83
2021/01/21 12:26:07;;;;;;;8.38;2.05;;;8.40;78.30;;;;;;5132051;28;20609;-83
2021/01/21 12:28:34;;;;;;;9.07;2.10;;;8.40;78.10;;;;;;5132202;27;20045;-83
2021/01/21 12:31:01;;;;;;;8.30;2.17;;;8.40;78.20;;;;;;5134721;27;20087;-82
2021/01/21 12:33:27;;;;;;;11.43;3.33;;;8.40;78.40;;;;;;5135678;27;20118;-83
2021/01/21 12:35:53;;;;;;;11.52;3.10;;;8.40;77.50;;;;;;5135341;27;20409;-83
2021/01/21 12:38:19;;;;;;;11.38;2.15;;;8.40;77.90;;;;;;5136130;27;20043;-83
2021/01/21 12:40:45;;;;;;;6.65;2.22;;;8.40;78.10;;;;;;5135821;27;20403;-83
2021/01/21 12:43:11;;;;;;;7.93;2.13;;;8.40;76.90;;;;;;5135250;27;20049;-83
2021/01/21 12:45:37;;;;;;;9.38;2.17;;;8.30;78.50;;;;;;5135813;27;20043;-82
2021/01/21 12:48:04;;;;;;;11.43;2.42;;;8.30;77.90;;;;;;5134958;27;20111;-82
2021/01/21 12:50:29;;;;;;;7.88;2.10;;;8.30;79.20;;;;;;5134736;27;20071;-83
2021/01/21 12:52:55;;;;;;;11.32;2.50;;;8.30;78.00;;;;;;5135018;27;20131;-82
2021/01/21 12:55:21;;;;;;;8.18;2.15;;;8.50;77.80;;;;;;5136181;27;20047;-83
2021/01/21 12:57:49;;;;;;;10.80;2.53;;;8.50;77.10;;;;;;5135720;27;20122;-83
2021/01/21 13:00:15;;;;;;;7.53;2.25;;;8.40;77.70;;;;;;5135837;27;20047;-83
2021/01/21 13:02:41;;;;;;;5.90;2.17;;;8.30;78.50;;;;;;5135497;27;20555;-83